Time;durP1;ratioP1;P1;durP2;ratioP2;P2;SDS_P1;SDS_P2;PMS_P1;PMS_P2;Temp;Humidity;BMP_temperature;BMP_pressure;BME280_temperature;BME280_humidity;BME280_pressure;Samples;Min_cycle;Max_cycle;Signal;HPM_P1;HPM_P2
2024/01/21 00:00:24;;;;;;;21.40;8.07;;;;;;;-0.24;65.35;101114.91;4991735;28;20533;-78
2024/01/21 00:02:50;;;;;;;23.85;9.77;;;;;;;-0.26;65.03;101111.34;4991839;28;20062;-78
2024/01/21 00:05:15;;;;;;;27.00;11.47;;;;;;;-0.28;65.42;101116.44;4992147;28;20031;-79
2024/01/21 00:07:41;;;;;;;24.97;10.30;;;;;;;-0.33;65.53;101116.22;4991184;28;20030;-80
2024/01/21 00:10:10;;;;;;;26.80;10.23;;;;;;;-0.37;65.44;101111.66;4990761;28;20022;-79
2024/01/21 00:12:36;;;;;;;23.05;10.05;;;;;;;-0.38;65.76;101112.47;4991645;28;20034;-79
2024/01/21 00:15:03;;;;;;;26.50;10.32;;;;;;;-0.39;65.23;101110.69;4991564;28;20053;-80
2024/01/21 00:17:28;;;;;;;23.85;9.70;;;;;;;-0.39;65.91;101113.28;5000653;28;20014;-79
2024/01/21 00:19:53;;;;;;;28.77;13.17;;;;;;;-0.40;65.28;101114.06;5005471;28;20033;-80
2024/01/21 00:22:19;;;;;;;27.63;10.77;;;;;;;-0.40;65.75;101118.38;4991446;28;20041;-79
2024/01/21 00:24:44;;;;;;;21.00;9.63;;;;;;;-0.41;65.40;101126.94;4998989;28;20025;-79
2024/01/21 00:27:10;;;;;;;22.45;8.73;;;;;;;-0.38;65.64;101133.16;4991873;28;20518;-79
2024/01/21 00:29:35;;;;;;;17.03;6.97;;;;;;;-0.41;65.76;101142.47;4991491;28;20106;-78
2024/01/21 00:32:00;;;;;;;21.47;7.47;;;;;;;-0.43;65.79;101129.44;4991370;28;20062;-78
2024/01/21 00:34:26;;;;;;;17.53;6.60;;;;;;;-0.44;65.61;101135.41;4991327;28;20030;-78
2024/01/21 00:36:51;;;;;;;15.67;6.00;;;;;;;-0.46;66.29;101145.72;4991223;28;20113;-78
2024/01/21 00:39:16;;;;;;;16.55;5.50;;;;;;;-0.46;66.22;101145.72;4991237;28;20057;-79
2024/01/21 00:41:42;;;;;;;17.93;6.20;;;;;;;-0.44;66.12;101145.78;4997474;28;20045;-78
2024/01/21 00:44:08;;;;;;;12.93;5.27;;;;;;;-0.47;66.31;101146.50;4991452;28;20076;-78
2024/01/21 00:46:38;;;;;;;13.57;4.50;;;;;;;-0.45;66.16;101149.16;4991567;28;20114;-78
2024/01/21 00:49:03;;;;;;;11.23;4.75;;;;;;;-0.44;66.47;101153.53;4990149;28;20027;-80
2024/01/21 00:51:29;;;;;;;10.33;3.80;;;;;;;-0.43;66.65;101150.13;4992190;28;20061;-79
2024/01/21 00:53:54;;;;;;;13.43;4.00;;;;;;;-0.41;66.46;101145.06;4991430;28;20105;-79
2024/01/21 00:56:19;;;;;;;11.03;3.63;;;;;;;-0.39;66.83;101141.72;4990685;28;20406;-79
2024/01/21 00:58:45;;;;;;;11.27;4.22;;;;;;;-0.39;66.87;101136.56;5002632;28;20077;-77
2024/01/21 01:01:10;;;;;;;12.00;4.27;;;;;;;-0.37;66.98;101149.59;5009263;28;20046;-78
2024/01/21 01:03:37;;;;;;;10.43;4.30;;;;;;;-0.36;67.00;101162.63;5009632;28;20031;-79
2024/01/21 01:06:03;;;;;;;10.23;3.95;;;;;;;-0.35;66.81;101169.59;4999046;28;20018;-80
2024/01/21 01:08:28;;;;;;;14.50;4.10;;;;;;;-0.36;67.09;101175.56;4990768;28;20106;-78
2024/01/21 01:10:54;;;;;;;13.43;4.25;;;;;;;-0.35;67.01;101173.84;4990657;28;20030;-79
2024/01/21 01:13:19;;;;;;;10.10;4.10;;;;;;;-0.35;67.22;101171.28;4990752;28;20438;-79
2024/01/21 01:15:45;;;;;;;13.00;4.53;;;;;;;-0.35;67.25;101176.44;4990642;28;20627;-80
2024/01/21 01:18:10;;;;;;;10.03;4.20;;;;;;;-0.34;67.21;101165.28;5005076;28;20028;-79
2024/01/21 01:20:35;;;;;;;9.87;3.90;;;;;;;-0.33;67.25;101178.31;4998626;28;20022;-78
2024/01/21 01:23:01;;;;;;;12.98;3.72;;;;;;;-0.33;67.45;101175.72;4990440;28;20034;-79
2024/01/21 01:25:27;;;;;;;11.13;3.70;;;;;;;-0.31;66.66;101186.16;5000122;28;20097;-79
2024/01/21 01:27:52;;;;;;;12.73;4.38;;;;;;;-0.31;67.33;101196.50;4990482;28;20430;-79
2024/01/21 01:30:18;;;;;;;10.40;4.20;;;;;;;-0.32;67.26;101199.91;4990482;28;20023;-79
2024/01/21 01:32:43;;;;;;;9.93;3.67;;;;;;;-0.35;67.61;101208.41;4990497;28;20506;-79
2024/01/21 01:35:09;;;;;;;8.20;3.33;;;;;;;-0.36;67.06;101201.44;4990120;28;20423;-79
2024/01/21 01:37:34;;;;;;;10.37;2.90;;;;;;;-0.36;67.41;101213.50;4990211;28;20288;-78
2024/01/21 01:40:00;;;;;;;8.57;3.40;;;;;;;-0.37;67.45;101211.72;4994108;28;20071;-80
2024/01/21 01:42:25;;;;;;;13.27;3.42;;;;;;;-0.39;67.25;101209.00;5010250;28;20083;-79
2024/01/21 01:44:51;;;;;;;13.40;3.40;;;;;;;-0.41;67.23;101204.59;5009881;28;20382;-79
2024/01/21 01:47:16;;;;;;;9.63;3.30;;;;;;;-0.44;67.93;101215.63;5009981;28;20029;-79
2024/01/21 01:49:42;;;;;;;10.87;3.47;;;;;;;-0.46;67.81;101220.75;5010045;28;20034;-79
2024/01/21 01:52:12;;;;;;;12.65;3.45;;;;;;;-0.47;67.59;101220.66;5011969;28;20029;-79
2024/01/21 01:54:39;;;;;;;10.60;3.25;;;;;;;-0.50;67.75;101220.47;5013733;28;20030;-79
2024/01/21 01:57:07;;;;;;;10.32;3.53;;;;;;;-0.52;67.67;101222.09;5013844;28;20118;-79
2024/01/21 01:59:34;;;;;;;8.07;2.80;;;;;;;-0.55;67.64;101217.63;4995494;28;20049;-79
2024/01/21 02:02:00;;;;;;;10.70;3.53;;;;;;;-0.55;67.97;101219.34;5013772;28;20417;-79
2024/01/21 02:04:25;;;;;;;12.75;3.70;;;;;;;-0.55;67.78;101221.91;5013824;28;20360;-80
2024/01/21 02:06:52;;;;;;;11.98;4.28;;;;;;;-0.55;68.09;101234.84;5013571;28;20072;-78
2024/01/21 02:09:18;;;;;;;10.27;4.20;;;;;;;-0.55;67.85;101237.44;4995971;28;20390;-78
2024/01/21 02:11:43;;;;;;;14.07;4.15;;;;;;;-0.57;68.10;101239.94;5013455;28;20026;-79
2024/01/21 02:14:09;;;;;;;10.57;3.40;;;;;;;-0.59;68.39;101237.28;5013148;28;20436;-80
2024/01/21 02:16:35;;;;;;;10.27;3.30;;;;;;;-0.60;68.31;101227.72;4993746;28;20025;-80
2024/01/21 02:19:06;;;;;;;9.10;2.85;;;;;;;-0.61;68.15;101223.34;4993641;28;20026;-79
2024/01/21 02:21:31;;;;;;;10.47;2.83;;;;;;;-0.59;68.52;101237.28;4993685;28;20125;-79
2024/01/21 02:23:57;;;;;;;12.15;3.03;;;;;;;-0.58;68.34;101232.97;4995045;28;20105;-79
2024/01/21 02:26:25;;;;;;;9.20;2.97;;;;;;;-0.57;68.62;101226.13;5001470;28;20487;-79
2024/01/21 02:28:50;;;;;;;10.60;3.63;;;;;;;-0.57;68.51;101218.34;4993906;28;20034;-79
2024/01/21 02:31:15;;;;;;;11.57;2.97;;;;;;;-0.56;69.06;101220.13;4993402;28;20037;-79
2024/01/21 02:33:41;;;;;;;11.73;3.17;;;;;;;-0.55;69.29;101219.34;4993404;28;20061;-79
2024/01/21 02:36:06;;;;;;;12.37;2.93;;;;;;;-0.53;69.20;101228.06;4993374;28;20033;-79
2024/01/21 02:38:31;;;;;;;14.30;3.90;;;;;;;-0.52;69.77;101217.78;4993242;28;20438;-79
2024/01/21 02:40:57;;;;;;;9.97;3.40;;;;;;;-0.49;69.60;101217.09;5004300;28;20514;-79
2024/01/21 02:43:22;;;;;;;13.10;3.30;;;;;;;-0.45;70.24;101229.38;5013080;28;20029;-79
2024/01/21 02:45:48;;;;;;;8.93;3.38;;;;;;;-0.43;69.62;101227.78;5012881;28;20487;-79
2024/01/21 02:48:13;;;;;;;8.70;2.90;;;;;;;-0.42;69.76;101221.78;5012926;28;20033;-80
2024/01/21 02:50:38;;;;;;;10.37;3.43;;;;;;;-0.42;70.07;101226.97;4995379;28;20030;-79
2024/01/21 02:53:04;;;;;;;10.80;3.37;;;;;;;-0.41;69.58;101225.28;5013039;28;20501;-79
2024/01/21 02:55:29;;;;;;;10.98;3.65;;;;;;;-0.41;69.86;101231.34;5012542;28;20047;-79
2024/01/21 02:57:55;;;;;;;11.33;3.17;;;;;;;-0.40;70.40;101233.13;5012724;28;20058;-79
2024/01/21 03:00:20;;;;;;;9.43;3.67;;;;;;;-0.37;70.66;101232.41;5012281;28;20046;-79
2024/01/21 03:02:46;;;;;;;10.30;3.00;;;;;;;-0.35;69.86;101239.47;4994107;28;20038;-80
2024/01/21 03:05:12;;;;;;;11.75;3.53;;;;;;;-0.35;70.74;101221.34;5012438;28;20080;-79
2024/01/21 03:07:37;;;;;;;14.37;3.73;;;;;;;-0.34;71.17;101224.81;5012655;28;20037;-79
2024/01/21 03:10:04;;;;;;;13.60;3.53;;;;;;;-0.33;71.04;101231.78;5012423;28;20022;-79
2024/01/21 03:12:29;;;;;;;15.50;3.50;;;;;;;-0.32;70.49;101236.13;5012379;28;20157;-79
2024/01/21 03:14:54;;;;;;;9.03;3.00;;;;;;;-0.34;70.53;101238.66;4994832;28;20120;-79
2024/01/21 03:17:20;;;;;;;7.73;3.00;;;;;;;-0.35;70.98;101241.16;5003988;28;20042;-79
2024/01/21 03:19:45;;;;;;;8.32;2.88;;;;;;;-0.37;70.28;101246.22;4992816;28;20101;-79
2024/01/21 03:22:10;;;;;;;10.80;3.03;;;;;;;-0.37;70.95;101254.00;4992541;28;20045;-79
2024/01/21 03:24:36;;;;;;;9.60;2.97;;;;;;;-0.35;71.16;101252.41;4998973;28;20049;-80
2024/01/21 03:27:01;;;;;;;12.30;3.70;;;;;;;-0.34;71.09;101259.38;4995055;28;20344;-78
2024/01/21 03:29:27;;;;;;;10.25;2.95;;;;;;;-0.32;71.51;101257.75;4992231;28;20073;-79
2024/01/21 03:31:52;;;;;;;8.93;2.80;;;;;;;-0.28;71.14;101261.38;4992263;28;20058;-79
2024/01/21 03:34:18;;;;;;;10.70;3.27;;;;;;;-0.27;71.07;101255.41;4992259;28;20080;-79
2024/01/21 03:36:43;;;;;;;10.63;2.70;;;;;;;-0.25;71.35;101248.59;4992264;28;20026;-79
2024/01/21 03:39:08;;;;;;;12.40;3.17;;;;;;;-0.25;71.68;101253.78;4974648;28;20034;-80
2024/01/21 03:41:34;;;;;;;8.97;2.70;;;;;;;-0.24;71.24;101260.78;5008249;28;20506;-79
2024/01/21 03:43:59;;;;;;;12.00;2.67;;;;;;;-0.24;71.75;101275.41;5012000;28;20079;-79
2024/01/21 03:46:25;;;;;;;14.37;3.43;;;;;;;-0.24;71.47;101283.16;5011748;28;20034;-78
2024/01/21 03:48:50;;;;;;;10.33;3.17;;;;;;;-0.24;71.77;101296.09;5011694;28;20029;-79
2024/01/21 03:51:16;;;;;;;10.20;3.30;;;;;;;-0.23;71.35;101308.25;5011754;28;20753;-78
2024/01/21 03:53:41;;;;;;;13.00;3.20;;;;;;;-0.22;71.80;101310.94;5011427;28;20021;-79
2024/01/21 03:56:07;;;;;;;9.55;3.33;;;;;;;-0.20;71.92;101300.66;5011558;28;20061;-79
2024/01/21 03:58:33;;;;;;;11.97;3.27;;;;;;;-0.20;71.81;101304.16;5011527;28;20038;-80
2024/01/21 04:00:58;;;;;;;13.77;3.60;;;;;;;-0.17;73.64;101306.00;5011152;28;20049;-79
2024/01/21 04:03:24;;;;;;;17.35;3.50;;;;;;;-0.11;72.81;101298.59;5011445;28;20450;-79
2024/01/21 04:05:50;;;;;;;11.02;3.60;;;;;;;-0.06;73.60;101296.25;5011875;28;20056;-79
2024/01/21 04:08:16;;;;;;;10.90;2.93;;;;;;;-0.02;72.99;101286.16;5011410;28;20037;-79
2024/01/21 04:10:41;;;;;;;15.70;3.27;;;;;;;0.02;72.50;101291.50;5011484;28;20502;-80
2024/01/21 04:13:06;;;;;;;11.43;3.00;;;;;;;0.02;72.07;101283.72;5011533;28;20284;-79
2024/01/21 04:15:32;;;;;;;9.07;2.97;;;;;;;0.01;73.40;101292.31;5010958;28;20141;-79
2024/01/21 04:17:57;;;;;;;11.73;3.50;;;;;;;0.02;72.67;101294.09;4998066;28;20410;-79
2024/01/21 04:20:23;;;;;;;14.77;3.30;;;;;;;0.02;72.58;101283.72;4991297;28;20402;-79
2024/01/21 04:22:48;;;;;;;13.70;3.28;;;;;;;0.03;72.81;101288.09;4991366;28;20038;-80
2024/01/21 04:25:14;;;;;;;14.03;3.37;;;;;;;0.03;72.80;101278.66;4996710;28;20034;-80
2024/01/21 04:27:39;;;;;;;12.67;3.47;;;;;;;0.04;73.29;101282.13;4991584;28;20018;-79
2024/01/21 04:30:05;;;;;;;12.83;3.60;;;;;;;0.04;73.38;101290.78;4991452;28;20494;-80
2024/01/21 04:32:30;;;;;;;14.82;3.60;;;;;;;0.03;73.08;101281.25;4991322;28;20104;-79
2024/01/21 04:34:56;;;;;;;9.47;3.13;;;;;;;0.02;72.94;101283.72;4973663;28;20038;-79
2024/01/21 04:37:21;;;;;;;12.90;3.47;;;;;;;0.02;73.32;101294.09;4991052;28;20042;-80
2024/01/21 04:39:47;;;;;;;10.88;3.05;;;;;;;-0.01;73.12;101300.88;4992460;28;20501;-80
2024/01/21 04:42:12;;;;;;;13.87;3.80;;;;;;;-0.02;73.56;101300.78;5010694;28;20166;-80
2024/01/21 04:44:37;;;;;;;11.03;3.50;;;;;;;-0.05;73.91;101304.13;5010568;28;20101;-80
2024/01/21 04:47:03;;;;;;;16.40;3.83;;;;;;;-0.07;73.55;101305.72;5010686;28;20056;-80
2024/01/21 04:49:28;;;;;;;15.17;3.80;;;;;;;-0.09;73.69;101312.50;5010788;28;20028;-80
2024/01/21 04:51:54;;;;;;;13.70;3.72;;;;;;;-0.10;74.05;101310.72;5010544;28;20556;-79
2024/01/21 04:54:20;;;;;;;15.00;4.57;;;;;;;-0.12;75.00;101299.41;5011020;28;20045;-80
2024/01/21 04:56:45;;;;;;;15.02;4.65;;;;;;;-0.10;75.01;101308.16;5010642;28;20478;-79
2024/01/21 04:59:11;;;;;;;17.17;4.37;;;;;;;-0.09;75.03;101309.94;5010251;28;20026;-79
2024/01/21 05:01:36;;;;;;;12.40;4.00;;;;;;;-0.07;76.25;101321.25;5010423;28;20041;-80
2024/01/21 05:04:01;;;;;;;17.23;4.20;;;;;;;-0.06;75.21;101310.09;5010892;28;20254;-79
2024/01/21 05:06:27;;;;;;;14.25;4.15;;;;;;;-0.09;77.25;101302.16;5010423;28;20061;-79
2024/01/21 05:08:52;;;;;;;18.73;5.03;;;;;;;-0.06;78.27;101296.25;5010264;28;20110;-79
2024/01/21 05:11:18;;;;;;;17.43;4.70;;;;;;;-0.03;78.07;101299.91;5010480;28;20028;-79
2024/01/21 05:13:43;;;;;;;17.77;4.63;;;;;;;0.06;77.70;101304.72;5010287;28;20124;-79
2024/01/21 05:16:08;;;;;;;19.20;4.80;;;;;;;0.11;78.44;101310.13;5010086;28;20025;-80
2024/01/21 05:18:37;;;;;;;13.83;4.20;;;;;;;0.18;79.52;101301.00;4991874;28;20450;-79
2024/01/21 05:21:03;;;;;;;15.32;4.68;;;;;;;0.21;79.78;101307.25;4990070;28;20030;-80
2024/01/21 05:23:28;;;;;;;15.73;5.07;;;;;;;0.24;78.75;101307.41;4990186;28;20030;-79
2024/01/21 05:25:54;;;;;;;10.03;3.30;;;;;;;0.24;77.46;101319.47;4997890;28;20057;-79
2024/01/21 05:28:20;;;;;;;17.45;4.53;;;;;;;0.21;77.31;101319.28;4990713;28;20068;-80
2024/01/21 05:30:45;;;;;;;14.63;4.40;;;;;;;0.17;78.21;101323.44;4990313;28;20038;-79
2024/01/21 05:33:11;;;;;;;11.85;3.97;;;;;;;0.16;77.46;101323.34;4990506;28;20415;-79
2024/01/21 05:35:36;;;;;;;12.20;3.70;;;;;;;0.13;77.55;101334.44;4990543;28;20499;-79
2024/01/21 05:38:01;;;;;;;12.87;3.90;;;;;;;0.12;76.60;101345.56;4990725;28;20459;-79
2024/01/21 05:40:27;;;;;;;11.60;3.87;;;;;;;0.10;76.33;101352.38;4979459;28;20112;-79
2024/01/21 05:42:53;;;;;;;14.57;3.75;;;;;;;0.10;76.68;101357.56;5010033;28;20466;-80
2024/01/21 05:45:19;;;;;;;15.60;4.00;;;;;;;0.08;77.43;101359.16;5009951;28;20029;-80
2024/01/21 05:47:44;;;;;;;16.25;4.80;;;;;;;0.10;77.69;101370.50;5009967;28;20379;-79
2024/01/21 05:50:10;;;;;;;16.67;3.87;;;;;;;0.12;76.97;101367.19;5009849;28;20037;-79
2024/01/21 05:52:36;;;;;;;15.13;4.30;;;;;;;0.15;77.55;101379.44;5009820;28;20030;-79
2024/01/21 05:55:03;;;;;;;12.25;4.80;;;;;;;0.23;79.23;101382.44;5010135;28;20026;-79
2024/01/21 05:57:29;;;;;;;13.85;4.43;;;;;;;0.27;77.74;101374.94;5009659;28;20030;-79
2024/01/21 05:59:55;;;;;;;13.40;3.87;;;;;;;0.31;77.81;101380.28;5009339;28;20034;-79
2024/01/21 06:02:20;;;;;;;18.75;5.03;;;;;;;0.32;77.49;101376.88;4991811;28;20093;-80
2024/01/21 06:04:45;;;;;;;14.37;3.83;;;;;;;0.33;77.16;101376.06;5009676;28;20033;-79
2024/01/21 06:07:11;;;;;;;16.60;4.23;;;;;;;0.34;78.12;101368.41;5010104;28;20232;-79
2024/01/21 06:09:36;;;;;;;11.37;3.77;;;;;;;0.35;77.69;101364.09;5009982;28;20467;-79
2024/01/21 06:12:02;;;;;;;13.33;3.53;;;;;;;0.37;78.11;101352.16;5018207;28;20327;-79
2024/01/21 06:14:27;;;;;;;13.80;4.10;;;;;;;0.37;78.71;101359.91;5021145;28;20030;-80
2024/01/21 06:16:53;;;;;;;15.37;4.07;;;;;;;0.39;77.61;101376.44;5013025;28;20025;-79
2024/01/21 06:19:18;;;;;;;17.97;6.47;;;;;;;0.37;78.02;101375.47;4995238;28;20106;-79
2024/01/21 06:21:44;;;;;;;19.20;6.53;;;;;;;0.35;77.80;101377.06;4991884;28;20030;-79
2024/01/21 06:24:12;;;;;;;14.83;6.53;;;;;;;0.33;77.71;101400.31;4993982;28;20034;-79
2024/01/21 06:26:37;;;;;;;13.65;5.88;;;;;;;0.29;77.64;101400.94;4995822;28;20164;-80
2024/01/21 06:29:03;;;;;;;14.93;6.17;;;;;;;0.23;77.04;101392.81;4990135;28;20225;-79
2024/01/21 06:31:29;;;;;;;17.10;6.22;;;;;;;0.17;78.74;101383.00;4990105;28;20026;-79
2024/01/21 06:33:54;;;;;;;19.73;5.90;;;;;;;0.18;78.00;101389.06;4989980;28;20030;-79
2024/01/21 06:36:22;;;;;;;21.90;7.30;;;;;;;0.15;77.82;101376.84;4989917;28;20170;-79
2024/01/21 06:38:48;;;;;;;23.10;7.78;;;;;;;0.11;77.62;101382.66;4991078;28;20386;-79
2024/01/21 06:41:14;;;;;;;17.93;6.93;;;;;;;0.07;77.52;101407.50;5006460;28;20030;-79
2024/01/21 06:43:39;;;;;;;18.83;6.35;;;;;;;0.05;77.35;101413.38;5013194;28;20033;-80
2024/01/21 06:46:05;;;;;;;19.73;6.50;;;;;;;0.02;77.18;101416.72;5012947;28;20116;-79
2024/01/21 06:48:30;;;;;;;15.80;6.30;;;;;;;-0.02;77.50;101413.03;5012967;28;20041;-80
2024/01/21 06:50:56;;;;;;;19.57;6.43;;;;;;;-0.05;76.92;101415.44;5012717;28;20053;-80
2024/01/21 06:53:21;;;;;;;15.32;6.57;;;;;;;-0.09;76.99;101410.91;5012906;28;20033;-80
2024/01/21 06:55:47;;;;;;;17.63;5.75;;;;;;;-0.15;77.20;101415.72;5012675;28;20065;-79
2024/01/21 06:58:12;;;;;;;18.10;6.87;;;;;;;-0.22;76.71;101410.97;5012570;28;20022;-79
2024/01/21 07:00:38;;;;;;;19.13;7.33;;;;;;;-0.30;77.12;101421.78;5012589;28;20172;-80
2024/01/21 07:03:04;;;;;;;16.07;6.97;;;;;;;-0.32;77.33;101420.81;5012604;28;20030;-79
2024/01/21 07:05:29;;;;;;;17.52;6.57;;;;;;;-0.38;77.01;101412.66;5012597;28;20028;-79
2024/01/21 07:07:54;;;;;;;16.00;6.93;;;;;;;-0.42;77.36;101420.19;4995003;28;20026;-79
2024/01/21 07:10:20;;;;;;;16.50;6.77;;;;;;;-0.44;76.94;101427.84;5012692;28;20105;-80
2024/01/21 07:12:46;;;;;;;17.80;6.00;;;;;;;-0.46;76.86;101435.53;5004242;28;20031;-79
2024/01/21 07:15:11;;;;;;;15.82;6.72;;;;;;;-0.48;77.09;101441.41;4992578;28;20086;-79
2024/01/21 07:17:38;;;;;;;14.90;6.60;;;;;;;-0.49;76.94;101444.78;5002797;28;20470;-80
2024/01/21 07:20:04;;;;;;;19.67;6.45;;;;;;;-0.51;76.68;101454.16;5005525;28;20018;-80
2024/01/21 07:22:30;;;;;;;17.23;7.65;;;;;;;-0.51;76.53;101451.56;4992426;28;20057;-80
2024/01/21 07:24:56;;;;;;;18.07;7.70;;;;;;;-0.54;76.60;101456.56;5001824;28;20026;-80
2024/01/21 07:27:22;;;;;;;18.65;6.88;;;;;;;-0.57;76.53;101457.25;4975326;28;20050;-80
2024/01/21 07:29:47;;;;;;;20.37;8.43;;;;;;;-0.61;77.35;101453.56;4992528;28;20126;-80
2024/01/21 07:32:12;;;;;;;20.20;9.00;;;;;;;-0.63;77.28;101451.72;4992885;28;20033;-80
2024/01/21 07:34:38;;;;;;;23.60;9.50;;;;;;;-0.64;77.01;101450.81;4974839;28;20038;-80
2024/01/21 07:37:03;;;;;;;28.00;10.90;;;;;;;-0.65;76.74;101459.38;4992104;28;20157;-80
2024/01/21 07:39:28;;;;;;;25.15;8.90;;;;;;;-0.66;76.52;101461.88;4991125;28;20030;-78
2024/01/21 07:41:54;;;;;;;22.67;8.60;;;;;;;-0.66;76.43;101465.34;4991485;28;20479;-78
2024/01/21 07:44:19;;;;;;;25.10;8.30;;;;;;;-0.67;76.56;101465.28;4992337;28;20109;-79
2024/01/21 07:46:45;;;;;;;20.03;8.47;;;;;;;-0.68;76.65;101460.91;4991890;28;20426;-78
2024/01/21 07:49:10;;;;;;;24.33;8.53;;;;;;;-0.71;76.23;101466.75;4991770;28;20109;-80
2024/01/21 07:51:35;;;;;;;20.83;10.43;;;;;;;-0.74;76.76;101459.69;4992085;28;20293;-79
2024/01/21 07:54:01;;;;;;;20.97;9.40;;;;;;;-0.77;76.50;101462.09;4991943;28;20505;-79
2024/01/21 07:56:26;;;;;;;24.60;8.97;;;;;;;-0.77;76.72;101474.16;4974517;28;20068;-79
2024/01/21 07:58:52;;;;;;;23.40;8.60;;;;;;;-0.78;76.65;101477.53;5001690;28;20033;-78
2024/01/21 08:01:21;;;;;;;23.38;9.77;;;;;;;-0.78;76.61;101487.88;5005636;28;20499;-79
2024/01/21 08:03:47;;;;;;;25.10;10.10;;;;;;;-0.77;76.33;101477.63;4990839;28;20114;-81
2024/01/21 08:06:12;;;;;;;24.90;10.35;;;;;;;-0.76;76.08;101478.53;4972561;28;20452;-80
2024/01/21 08:08:38;;;;;;;22.40;10.07;;;;;;;-0.73;76.18;101481.31;4991887;28;20541;-79
2024/01/21 08:11:03;;;;;;;31.77;11.90;;;;;;;-0.68;75.98;101495.41;4991453;28;20018;-80
2024/01/21 08:13:29;;;;;;;22.77;10.10;;;;;;;-0.60;76.43;101507.13;4991841;28;20114;-80
2024/01/21 08:15:54;;;;;;;21.27;9.47;;;;;;;-0.46;75.69;101507.06;4991515;28;20274;-79
2024/01/21 08:18:20;;;;;;;19.30;9.00;;;;;;;-0.31;75.82;101501.94;5007399;28;20446;-80
2024/01/21 08:20:46;;;;;;;21.33;9.63;;;;;;;-0.19;75.22;101510.44;4998583;28;20556;-79
2024/01/21 08:23:12;;;;;;;22.42;8.88;;;;;;;-0.01;75.01;101523.59;4991685;28;20393;-79
2024/01/21 08:25:37;;;;;;;20.03;8.50;;;;;;;0.22;74.69;101524.06;4990320;28;20042;-79
2024/01/21 08:28:05;;;;;;;21.00;9.57;;;;;;;0.42;74.55;101519.13;4991543;28;20278;-79
2024/01/21 08:30:31;;;;;;;32.40;10.98;;;;;;;0.66;73.64;101523.94;4991287;28;20027;-79
2024/01/21 08:32:56;;;;;;;23.30;8.80;;;;;;;0.89;73.68;101527.81;4973869;28;20034;-79
2024/01/21 08:35:22;;;;;;;21.27;8.97;;;;;;;1.08;73.97;101527.13;4991375;28;20065;-79
2024/01/21 08:37:47;;;;;;;23.70;8.97;;;;;;;1.28;74.04;101523.03;4991133;28;20414;-80
2024/01/21 08:40:13;;;;;;;21.63;7.82;;;;;;;1.46;73.19;101526.53;4990954;28;20105;-80
2024/01/21 08:42:39;;;;;;;22.13;6.70;;;;;;;1.61;73.75;101524.78;4990056;28;20045;-79
2024/01/21 08:45:05;;;;;;;23.50;6.13;;;;;;;1.78;73.47;101535.13;4973616;28;20037;-79
2024/01/21 08:47:31;;;;;;;26.17;7.20;;;;;;;1.93;74.55;101535.03;4991094;28;20034;-80
2024/01/21 08:49:56;;;;;;;16.10;5.63;;;;;;;2.09;74.12;101553.19;4991009;28;20083;-79
2024/01/21 08:52:22;;;;;;;23.00;5.30;;;;;;;2.24;73.78;101558.28;4988817;28;20035;-80
2024/01/21 08:54:47;;;;;;;15.27;5.40;;;;;;;2.38;73.81;101560.72;4991048;28;20610;-79
2024/01/21 08:57:12;;;;;;;17.67;5.43;;;;;;;2.51;74.07;101557.88;4990650;28;20030;-80
2024/01/21 08:59:38;;;;;;;16.70;4.78;;;;;;;2.64;74.46;101550.72;4991085;28;20074;-79
2024/01/21 09:02:03;;;;;;;15.40;4.40;;;;;;;2.77;74.06;101545.28;4997073;28;20034;-81
2024/01/21 09:04:29;;;;;;;14.13;5.23;;;;;;;2.90;73.94;101535.47;4990606;28;20022;-78
2024/01/21 09:06:54;;;;;;;18.63;5.10;;;;;;;3.08;73.42;101536.34;4992340;28;20479;-79
2024/01/21 09:09:20;;;;;;;18.10;5.27;;;;;;;3.26;73.41;101535.44;5010250;28;20293;-78
2024/01/21 09:11:47;;;;;;;11.97;4.30;;;;;;;3.32;73.01;101527.91;5010209;28;20109;-81
2024/01/21 09:14:12;;;;;;;13.40;4.25;;;;;;;3.40;73.19;101536.94;5003901;28;20023;-80
2024/01/21 09:16:38;;;;;;;14.53;4.40;;;;;;;3.48;73.00;101544.22;4990251;28;20035;-80
2024/01/21 09:19:03;;;;;;;12.43;4.37;;;;;;;3.55;72.83;101548.91;4977821;28;20033;-80
2024/01/21 09:21:30;;;;;;;16.47;4.50;;;;;;;3.62;72.69;101550.94;4998452;28;20300;-80
2024/01/21 09:23:56;;;;;;;14.65;5.15;;;;;;;3.73;72.67;101554.03;4980411;28;20026;-80
2024/01/21 09:26:22;;;;;;;14.10;4.30;;;;;;;3.79;72.54;101563.84;4990568;28;20037;-79
2024/01/21 09:28:47;;;;;;;14.87;5.00;;;;;;;3.85;72.41;101564.13;4990899;28;20018;-80
2024/01/21 09:31:13;;;;;;;15.93;4.57;;;;;;;3.95;72.10;101560.22;4990085;28;20022;-81
2024/01/21 09:33:39;;;;;;;15.70;4.57;;;;;;;4.06;72.12;101552.88;4990437;28;20390;-82
2024/01/21 09:36:04;;;;;;;12.15;4.35;;;;;;;4.23;72.06;101556.19;4974882;28;20034;-82
2024/01/21 09:38:29;;;;;;;16.13;5.10;;;;;;;4.42;71.50;101558.75;4989995;28;20092;-82
2024/01/21 09:41:29;;;;;;;11.80;4.20;;;;;;;4.58;70.97;101557.69;4996362;28;20558;-82
2024/01/21 09:43:54;;;;;;;14.77;4.95;;;;;;;4.87;70.54;101557.97;4993532;28;20056;-82
2024/01/21 09:46:20;;;;;;;14.17;4.70;;;;;;;5.06;69.24;101553.50;4987064;28;20499;-81
2024/01/21 09:48:47;;;;;;;13.50;4.17;;;;;;;5.06;70.32;101550.88;4979343;28;20039;-83
2024/01/21 09:51:13;;;;;;;12.45;4.22;;;;;;;5.17;69.74;101561.75;4989295;28;20027;-82
2024/01/21 09:53:39;;;;;;;15.10;4.63;;;;;;;5.31;68.82;101564.88;4990142;28;20031;-81
2024/01/21 09:56:08;;;;;;;13.70;5.27;;;;;;;5.41;68.66;101566.13;4990150;28;20027;-82
2024/01/21 09:58:42;;;;;;;14.05;4.22;;;;;;;5.46;68.76;101573.31;4990060;28;20402;-81
2024/01/21 10:01:07;;;;;;;14.40;4.25;;;;;;;5.52;69.63;101580.47;4989958;28;20042;-81
2024/01/21 10:03:33;;;;;;;14.93;5.70;;;;;;;5.64;68.88;101574.81;4988558;28;20053;-81
2024/01/21 10:05:58;;;;;;;11.70;4.23;;;;;;;5.62;69.05;101579.09;4982135;28;20492;-78
2024/01/21 10:08:24;;;;;;;16.10;4.60;;;;;;;5.70;69.22;101580.31;4970513;28;20113;-78
2024/01/21 10:10:51;;;;;;;12.02;4.47;;;;;;;5.82;68.72;101585.09;4990287;28;20046;-79
2024/01/21 10:13:16;;;;;;;11.83;4.20;;;;;;;6.02;68.75;101588.47;4992194;28;20035;-79
2024/01/21 10:15:42;;;;;;;13.50;4.90;;;;;;;6.25;67.26;101580.53;4993707;28;20033;-79
2024/01/21 10:18:07;;;;;;;17.00;4.28;;;;;;;6.37;67.90;101579.16;4976521;28;20026;-80
2024/01/21 10:20:35;;;;;;;15.57;3.83;;;;;;;6.53;66.98;101576.25;4993745;28;20069;-80
2024/01/21 10:23:11;;;;;;;14.52;5.05;;;;;;;6.60;66.49;101567.75;4993726;28;20038;-79
2024/01/21 10:25:39;;;;;;;14.35;4.60;;;;;;;6.67;66.73;101583.69;5002785;28;20117;-80
2024/01/21 10:28:05;;;;;;;16.30;5.53;;;;;;;6.77;66.60;101575.28;4994021;28;20014;-81
2024/01/21 10:30:31;;;;;;;10.98;4.32;;;;;;;6.94;66.34;101582.81;4992949;28;20395;-80
2024/01/21 10:32:56;;;;;;;12.52;3.58;;;;;;;6.96;67.30;101581.13;4992529;28;20045;-79
2024/01/21 10:35:22;;;;;;;12.77;3.87;;;;;;;7.07;66.88;101568.38;4975123;28;20034;-80
2024/01/21 10:37:47;;;;;;;12.60;4.77;;;;;;;7.32;66.01;101570.00;4997623;28;20034;-81
2024/01/21 10:40:12;;;;;;;14.37;4.13;;;;;;;7.44;65.72;101559.00;4998266;28;20017;-81
2024/01/21 10:42:39;;;;;;;15.30;4.25;;;;;;;7.57;65.22;101555.91;5013300;28;20025;-82
2024/01/21 10:45:05;;;;;;;13.20;4.60;;;;;;;7.67;65.11;101553.56;4979790;28;20482;-80
2024/01/21 10:47:33;;;;;;;11.40;3.83;;;;;;;7.73;65.29;101551.13;4992284;28;20038;-81
2024/01/21 10:49:59;;;;;;;12.35;4.47;;;;;;;7.82;64.75;101550.47;4975908;28;20060;-80
2024/01/21 10:52:25;;;;;;;15.90;4.00;;;;;;;8.00;64.47;101558.84;4991908;28;20113;-80
2024/01/21 10:54:53;;;;;;;10.48;3.90;;;;;;;8.04;65.44;101565.97;4974324;28;20518;-81
2024/01/21 10:57:18;;;;;;;13.20;3.90;;;;;;;8.30;64.93;101562.28;4992635;28;20081;-84
2024/01/21 10:59:45;;;;;;;10.30;3.87;;;;;;;8.43;64.66;101555.59;4997939;28;20487;-86
2024/01/21 11:02:11;;;;;;;13.05;4.47;;;;;;;8.44;64.76;101554.75;4998113;28;20205;-88
2024/01/21 11:04:36;;;;;;;10.70;4.13;;;;;;;8.38;64.37;101544.09;5002000;28;20566;-85
2024/01/21 11:07:04;;;;;;;14.80;4.00;;;;;;;8.40;64.57;101543.28;5004141;28;20026;-84
2024/01/21 11:09:32;;;;;;;12.67;4.00;;;;;;;8.30;64.80;101543.91;4992630;28;20037;-90
2024/01/21 11:11:58;;;;;;;11.98;4.15;;;;;;;8.26;65.36;101535.03;5032177;28;20010;-82
2024/01/21 11:14:36;;;;;;;13.03;4.40;;;;;;;8.20;64.98;101527.03;5005210;28;20086;-83